sensor_id;sensor_type;location;lat;lon;timestamp;temperature;humidity
14521;DHT22;7347;50.844;4.490;2024-01-27T00:00:45;3.80;99.90
14521;DHT22;7347;50.844;4.490;2024-01-27T00:03:12;3.90;99.90
14521;DHT22;7347;50.844;4.490;2024-01-27T00:05:39;3.90;99.90
14521;DHT22;7347;50.844;4.490;2024-01-27T00:08:06;3.90;99.90
14521;DHT22;7347;50.844;4.490;2024-01-27T00:10:34;4.00;99.90
14521;DHT22;7347;50.844;4.490;2024-01-27T00:13:00;4.10;99.90
14521;DHT22;7347;50.844;4.490;2024-01-27T00:15:29;4.10;99.90
14521;DHT22;7347;50.844;4.490;2024-01-27T00:17:56;4.00;99.90
14521;DHT22;7347;50.844;4.490;2024-01-27T00:20:23;3.90;99.90
14521;DHT22;7347;50.844;4.490;2024-01-27T00:22:49;4.00;99.90
14521;DHT22;7347;50.844;4.490;2024-01-27T00:25:16;3.90;99.90
14521;DHT22;7347;50.844;4.490;2024-01-27T00:27:43;3.90;99.90
14521;DHT22;7347;50.844;4.490;2024-01-27T00:30:10;3.80;99.90
14521;DHT22;7347;50.844;4.490;2024-01-27T00:32:39;3.80;99.90
14521;DHT22;7347;50.844;4.490;2024-01-27T00:35:07;3.90;99.90
14521;DHT22;7347;50.844;4.490;2024-01-27T00:37:35;3.90;99.90
14521;DHT22;7347;50.844;4.490;2024-01-27T00:40:01;4.00;99.90
14521;DHT22;7347;50.844;4.490;2024-01-27T00:42:28;4.00;99.90
14521;DHT22;7347;50.844;4.490;2024-01-27T00:44:55;4.00;99.90
14521;DHT22;7347;50.844;4.490;2024-01-27T00:47:22;4.10;99.90
14521;DHT22;7347;50.844;4.490;2024-01-27T00:49:50;4.00;99.90
14521;DHT22;7347;50.844;4.490;2024-01-27T00:52:19;3.90;99.90
14521;DHT22;7347;50.844;4.490;2024-01-27T00:54:46;3.90;99.90
14521;DHT22;7347;50.844;4.490;2024-01-27T00:57:13;3.80;99.90
14521;DHT22;7347;50.844;4.490;2024-01-27T00:59:40;3.80;99.90
14521;DHT22;7347;50.844;4.490;2024-01-27T01:02:06;3.80;99.90
14521;DHT22;7347;50.844;4.490;2024-01-27T01:04:33;3.90;99.90
14521;DHT22;7347;50.844;4.490;2024-01-27T01:07:02;3.90;99.90
14521;DHT22;7347;50.844;4.490;2024-01-27T01:09:28;4.00;99.90
14521;DHT22;7347;50.844;4.490;2024-01-27T01:11:55;4.00;99.90
14521;DHT22;7347;50.844;4.490;2024-01-27T01:14:22;4.00;99.90
14521;DHT22;7347;50.844;4.490;2024-01-27T01:16:49;4.10;99.90
14521;DHT22;7347;50.844;4.490;2024-01-27T01:19:16;4.00;99.90
14521;DHT22;7347;50.844;4.490;2024-01-27T01:21:43;4.00;99.90
14521;DHT22;7347;50.844;4.490;2024-01-27T01:24:11;4.00;99.90
14521;DHT22;7347;50.844;4.490;2024-01-27T01:26:38;3.90;99.90
14521;DHT22;7347;50.844;4.490;2024-01-27T01:29:05;3.90;99.90
14521;DHT22;7347;50.844;4.490;2024-01-27T01:31:32;4.00;99.90
14521;DHT22;7347;50.844;4.490;2024-01-27T01:33:58;4.10;99.90
14521;DHT22;7347;50.844;4.490;2024-01-27T01:36:25;4.10;99.90
14521;DHT22;7347;50.844;4.490;2024-01-27T01:38:52;3.90;99.90
14521;DHT22;7347;50.844;4.490;2024-01-27T01:41:20;3.90;99.90
14521;DHT22;7347;50.844;4.490;2024-01-27T01:43:47;3.80;99.90
14521;DHT22;7347;50.844;4.490;2024-01-27T01:46:14;3.70;99.90
14521;DHT22;7347;50.844;4.490;2024-01-27T01:48:41;3.70;99.90
14521;DHT22;7347;50.844;4.490;2024-01-27T01:51:08;3.70;99.90
14521;DHT22;7347;50.844;4.490;2024-01-27T01:53:35;3.70;99.90
14521;DHT22;7347;50.844;4.490;2024-01-27T01:56:03;3.70;99.90
14521;DHT22;7347;50.844;4.490;2024-01-27T01:58:31;3.70;99.90
14521;DHT22;7347;50.844;4.490;2024-01-27T02:01:00;3.80;99.90
14521;DHT22;7347;50.844;4.490;2024-01-27T02:03:27;3.80;99.90
14521;DHT22;7347;50.844;4.490;2024-01-27T02:05:54;3.80;99.90
14521;DHT22;7347;50.844;4.490;2024-01-27T02:08:21;3.80;99.90
14521;DHT22;7347;50.844;4.490;2024-01-27T02:10:48;3.80;99.90
14521;DHT22;7347;50.844;4.490;2024-01-27T02:13:16;3.80;99.90
14521;DHT22;7347;50.844;4.490;2024-01-27T02:15:45;3.80;99.90
14521;DHT22;7347;50.844;4.490;2024-01-27T02:18:13;3.80;99.90
14521;DHT22;7347;50.844;4.490;2024-01-27T02:20:39;3.70;99.90
14521;DHT22;7347;50.844;4.490;2024-01-27T02:23:07;3.70;99.90
14521;DHT22;7347;50.844;4.490;2024-01-27T02:25:35;3.60;99.90
14521;DHT22;7347;50.844;4.490;2024-01-27T02:28:02;3.70;99.90
14521;DHT22;7347;50.844;4.490;2024-01-27T02:30:29;3.80;99.90
14521;DHT22;7347;50.844;4.490;2024-01-27T02:32:56;3.60;99.90
14521;DHT22;7347;50.844;4.490;2024-01-27T02:35:23;3.60;99.90
14521;DHT22;7347;50.844;4.490;2024-01-27T02:37:50;3.60;99.90
14521;DHT22;7347;50.844;4.490;2024-01-27T02:40:17;3.60;99.90
14521;DHT22;7347;50.844;4.490;2024-01-27T02:42:45;3.70;99.90
14521;DHT22;7347;50.844;4.490;2024-01-27T02:45:12;3.70;99.90
14521;DHT22;7347;50.844;4.490;2024-01-27T02:47:39;3.80;99.90
14521;DHT22;7347;50.844;4.490;2024-01-27T02:50:07;3.80;99.90
14521;DHT22;7347;50.844;4.490;2024-01-27T02:52:34;3.60;99.90
14521;DHT22;7347;50.844;4.490;2024-01-27T02:55:01;3.60;99.90
14521;DHT22;7347;50.844;4.490;2024-01-27T02:57:28;3.60;99.90
14521;DHT22;7347;50.844;4.490;2024-01-27T02:59:56;3.60;99.90
14521;DHT22;7347;50.844;4.490;2024-01-27T03:02:23;3.50;99.90
14521;DHT22;7347;50.844;4.490;2024-01-27T03:04:50;3.50;99.90
14521;DHT22;7347;50.844;4.490;2024-01-27T03:07:16;3.40;99.90
14521;DHT22;7347;50.844;4.490;2024-01-27T03:09:43;3.20;99.90
14521;DHT22;7347;50.844;4.490;2024-01-27T03:12:10;3.10;99.90
14521;DHT22;7347;50.844;4.490;2024-01-27T03:14:37;3.10;99.90
14521;DHT22;7347;50.844;4.490;2024-01-27T03:17:05;3.00;99.90
14521;DHT22;7347;50.844;4.490;2024-01-27T03:19:32;2.90;99.90
14521;DHT22;7347;50.844;4.490;2024-01-27T03:21:59;2.90;99.90
14521;DHT22;7347;50.844;4.490;2024-01-27T03:24:26;2.80;99.90
14521;DHT22;7347;50.844;4.490;2024-01-27T03:26:53;2.70;99.90
14521;DHT22;7347;50.844;4.490;2024-01-27T03:29:19;2.70;99.90
14521;DHT22;7347;50.844;4.490;2024-01-27T03:31:46;2.80;99.90
14521;DHT22;7347;50.844;4.490;2024-01-27T03:34:16;2.70;99.90
14521;DHT22;7347;50.844;4.490;2024-01-27T03:36:48;2.70;99.90
14521;DHT22;7347;50.844;4.490;2024-01-27T03:39:15;2.60;99.90
14521;DHT22;7347;50.844;4.490;2024-01-27T03:41:42;2.60;99.90
14521;DHT22;7347;50.844;4.490;2024-01-27T03:44:08;2.70;99.90
14521;DHT22;7347;50.844;4.490;2024-01-27T03:46:35;2.70;99.90
14521;DHT22;7347;50.844;4.490;2024-01-27T03:49:04;2.80;99.90
14521;DHT22;7347;50.844;4.490;2024-01-27T03:51:32;2.70;99.90
14521;DHT22;7347;50.844;4.490;2024-01-27T03:53:59;2.70;99.90
14521;DHT22;7347;50.844;4.490;2024-01-27T03:56:26;2.70;99.90
14521;DHT22;7347;50.844;4.490;2024-01-27T03:58:53;2.70;99.90
14521;DHT22;7347;50.844;4.490;2024-01-27T04:01:20;2.70;99.90
14521;DHT22;7347;50.844;4.490;2024-01-27T04:03:47;2.60;99.90
14521;DHT22;7347;50.844;4.490;2024-01-27T04:06:14;2.50;99.90
14521;DHT22;7347;50.844;4.490;2024-01-27T04:08:42;2.50;99.90
14521;DHT22;7347;50.844;4.490;2024-01-27T04:11:18;2.40;99.90
14521;DHT22;7347;50.844;4.490;2024-01-27T04:13:45;2.40;99.90
14521;DHT22;7347;50.844;4.490;2024-01-27T04:16:12;2.40;99.90
14521;DHT22;7347;50.844;4.490;2024-01-27T04:18:39;2.60;99.90
14521;DHT22;7347;50.844;4.490;2024-01-27T04:21:06;2.70;99.90
14521;DHT22;7347;50.844;4.490;2024-01-27T04:23:33;2.80;99.90
14521;DHT22;7347;50.844;4.490;2024-01-27T04:26:01;2.90;99.90
14521;DHT22;7347;50.844;4.490;2024-01-27T04:28:28;2.90;99.90
14521;DHT22;7347;50.844;4.490;2024-01-27T04:30:57;2.90;99.90
14521;DHT22;7347;50.844;4.490;2024-01-27T04:33:23;2.90;99.90
14521;DHT22;7347;50.844;4.490;2024-01-27T04:35:50;3.00;99.90
14521;DHT22;7347;50.844;4.490;2024-01-27T04:38:17;3.00;99.90
14521;DHT22;7347;50.844;4.490;2024-01-27T04:40:44;3.00;99.90
14521;DHT22;7347;50.844;4.490;2024-01-27T04:43:16;3.10;99.90
14521;DHT22;7347;50.844;4.490;2024-01-27T04:45:42;3.10;99.90
14521;DHT22;7347;50.844;4.490;2024-01-27T04:48:10;3.10;99.90
14521;DHT22;7347;50.844;4.490;2024-01-27T04:50:36;3.10;99.90
14521;DHT22;7347;50.844;4.490;2024-01-27T04:53:04;3.20;99.90
14521;DHT22;7347;50.844;4.490;2024-01-27T04:55:31;3.20;99.90
14521;DHT22;7347;50.844;4.490;2024-01-27T04:57:57;3.10;99.90
14521;DHT22;7347;50.844;4.490;2024-01-27T05:00:26;3.10;99.90
14521;DHT22;7347;50.844;4.490;2024-01-27T05:02:53;3.10;99.90
14521;DHT22;7347;50.844;4.490;2024-01-27T05:05:21;3.10;99.90
14521;DHT22;7347;50.844;4.490;2024-01-27T05:07:48;3.10;99.90
14521;DHT22;7347;50.844;4.490;2024-01-27T05:10:15;3.00;99.90
14521;DHT22;7347;50.844;4.490;2024-01-27T05:12:42;3.00;99.90
14521;DHT22;7347;50.844;4.490;2024-01-27T05:15:10;3.00;99.90
14521;DHT22;7347;50.844;4.490;2024-01-27T05:17:38;3.00;99.90
14521;DHT22;7347;50.844;4.490;2024-01-27T05:20:07;3.10;99.90
14521;DHT22;7347;50.844;4.490;2024-01-27T05:22:34;3.10;99.90
14521;DHT22;7347;50.844;4.490;2024-01-27T05:25:01;3.20;99.90
14521;DHT22;7347;50.844;4.490;2024-01-27T05:27:28;3.20;99.90
14521;DHT22;7347;50.844;4.490;2024-01-27T05:29:55;3.20;99.90
14521;DHT22;7347;50.844;4.490;2024-01-27T05:32:22;3.20;99.90
14521;DHT22;7347;50.844;4.490;2024-01-27T05:34:50;3.40;99.90
14521;DHT22;7347;50.844;4.490;2024-01-27T05:37:17;3.30;99.90
14521;DHT22;7347;50.844;4.490;2024-01-27T05:39:44;3.30;99.90
14521;DHT22;7347;50.844;4.490;2024-01-27T05:42:11;3.10;99.90
14521;DHT22;7347;50.844;4.490;2024-01-27T05:44:38;3.10;99.90
14521;DHT22;7347;50.844;4.490;2024-01-27T05:47:06;3.00;99.90
14521;DHT22;7347;50.844;4.490;2024-01-27T05:49:32;3.00;99.90
14521;DHT22;7347;50.844;4.490;2024-01-27T05:52:01;3.00;99.90
14521;DHT22;7347;50.844;4.490;2024-01-27T05:54:28;3.00;99.90
14521;DHT22;7347;50.844;4.490;2024-01-27T05:56:56;3.00;99.90
14521;DHT22;7347;50.844;4.490;2024-01-27T05:59:23;3.00;99.90
14521;DHT22;7347;50.844;4.490;2024-01-27T06:01:50;2.90;99.90
14521;DHT22;7347;50.844;4.490;2024-01-27T06:04:17;2.90;99.90
14521;DHT22;7347;50.844;4.490;2024-01-27T06:06:44;3.00;99.90
14521;DHT22;7347;50.844;4.490;2024-01-27T06:09:12;2.90;99.90
14521;DHT22;7347;50.844;4.490;2024-01-27T06:11:39;2.80;99.90
14521;DHT22;7347;50.844;4.490;2024-01-27T06:14:06;2.70;99.90
14521;DHT22;7347;50.844;4.490;2024-01-27T06:16:33;2.60;99.90
14521;DHT22;7347;50.844;4.490;2024-01-27T06:19:01;2.70;99.90
14521;DHT22;7347;50.844;4.490;2024-01-27T06:21:27;2.70;99.90
14521;DHT22;7347;50.844;4.490;2024-01-27T06:23:54;2.70;99.90
14521;DHT22;7347;50.844;4.490;2024-01-27T06:26:25;2.70;99.90
14521;DHT22;7347;50.844;4.490;2024-01-27T06:28:52;2.60;99.90
14521;DHT22;7347;50.844;4.490;2024-01-27T06:31:19;2.60;99.90
14521;DHT22;7347;50.844;4.490;2024-01-27T06:33:46;2.70;99.90
14521;DHT22;7347;50.844;4.490;2024-01-27T06:36:13;2.70;99.90
14521;DHT22;7347;50.844;4.490;2024-01-27T06:38:40;2.60;99.90
14521;DHT22;7347;50.844;4.490;2024-01-27T06:41:07;2.50;99.90
14521;DHT22;7347;50.844;4.490;2024-01-27T06:43:35;2.40;99.90
14521;DHT22;7347;50.844;4.490;2024-01-27T06:46:02;2.40;99.90
14521;DHT22;7347;50.844;4.490;2024-01-27T06:48:29;2.40;99.90
14521;DHT22;7347;50.844;4.490;2024-01-27T06:50:56;2.40;99.90
14521;DHT22;7347;50.844;4.490;2024-01-27T06:53:23;2.30;99.90
14521;DHT22;7347;50.844;4.490;2024-01-27T06:55:50;2.20;99.90
14521;DHT22;7347;50.844;4.490;2024-01-27T06:58:16;2.20;99.90
14521;DHT22;7347;50.844;4.490;2024-01-27T07:00:45;2.10;99.90
14521;DHT22;7347;50.844;4.490;2024-01-27T07:03:11;2.10;99.90
14521;DHT22;7347;50.844;4.490;2024-01-27T07:05:38;2.10;99.90
14521;DHT22;7347;50.844;4.490;2024-01-27T07:08:06;2.00;99.90
14521;DHT22;7347;50.844;4.490;2024-01-27T07:10:33;2.10;99.90
14521;DHT22;7347;50.844;4.490;2024-01-27T07:13:00;2.00;99.90
14521;DHT22;7347;50.844;4.490;2024-01-27T07:15:27;2.00;99.90
14521;DHT22;7347;50.844;4.490;2024-01-27T07:17:56;2.00;99.90
14521;DHT22;7347;50.844;4.490;2024-01-27T07:20:22;2.00;99.90
14521;DHT22;7347;50.844;4.490;2024-01-27T07:22:50;1.90;99.90
14521;DHT22;7347;50.844;4.490;2024-01-27T07:25:17;1.90;99.90
14521;DHT22;7347;50.844;4.490;2024-01-27T07:27:47;1.80;99.90
14521;DHT22;7347;50.844;4.490;2024-01-27T07:30:14;1.80;99.90
14521;DHT22;7347;50.844;4.490;2024-01-27T07:32:41;1.90;99.90
14521;DHT22;7347;50.844;4.490;2024-01-27T07:35:11;1.80;99.90
14521;DHT22;7347;50.844;4.490;2024-01-27T07:37:37;1.70;99.90
14521;DHT22;7347;50.844;4.490;2024-01-27T07:40:05;1.70;99.90
14521;DHT22;7347;50.844;4.490;2024-01-27T07:42:34;1.80;99.90
14521;DHT22;7347;50.844;4.490;2024-01-27T07:45:01;1.90;99.90
14521;DHT22;7347;50.844;4.490;2024-01-27T07:47:28;1.90;99.90
14521;DHT22;7347;50.844;4.490;2024-01-27T07:49:55;1.90;99.90
14521;DHT22;7347;50.844;4.490;2024-01-27T07:52:23;2.10;99.90
14521;DHT22;7347;50.844;4.490;2024-01-27T07:54:50;2.20;99.90
14521;DHT22;7347;50.844;4.490;2024-01-27T07:57:16;2.40;99.90
14521;DHT22;7347;50.844;4.490;2024-01-27T07:59:43;2.50;99.90
14521;DHT22;7347;50.844;4.490;2024-01-27T08:02:10;2.70;99.90
14521;DHT22;7347;50.844;4.490;2024-01-27T08:04:37;2.80;99.90
14521;DHT22;7347;50.844;4.490;2024-01-27T08:07:04;2.90;99.90
14521;DHT22;7347;50.844;4.490;2024-01-27T08:09:37;3.20;99.90
14521;DHT22;7347;50.844;4.490;2024-01-27T08:12:05;3.50;99.90
14521;DHT22;7347;50.844;4.490;2024-01-27T08:14:32;3.80;99.90
14521;DHT22;7347;50.844;4.490;2024-01-27T08:17:01;3.90;99.90
14521;DHT22;7347;50.844;4.490;2024-01-27T08:19:29;4.20;99.90
14521;DHT22;7347;50.844;4.490;2024-01-27T08:21:55;4.60;99.90
14521;DHT22;7347;50.844;4.490;2024-01-27T08:24:22;5.10;99.90
14521;DHT22;7347;50.844;4.490;2024-01-27T08:26:51;5.40;99.90
14521;DHT22;7347;50.844;4.490;2024-01-27T08:29:18;5.80;99.90
14521;DHT22;7347;50.844;4.490;2024-01-27T08:31:48;6.10;99.90
14521;DHT22;7347;50.844;4.490;2024-01-27T08:34:16;6.50;99.90
14521;DHT22;7347;50.844;4.490;2024-01-27T08:36:42;6.80;99.90
14521;DHT22;7347;50.844;4.490;2024-01-27T08:39:09;7.10;99.90
14521;DHT22;7347;50.844;4.490;2024-01-27T08:41:37;7.30;99.90
14521;DHT22;7347;50.844;4.490;2024-01-27T08:44:06;7.50;99.90
14521;DHT22;7347;50.844;4.490;2024-01-27T08:46:32;7.70;99.90
14521;DHT22;7347;50.844;4.490;2024-01-27T08:48:59;7.70;99.90
14521;DHT22;7347;50.844;4.490;2024-01-27T08:51:26;7.70;99.90
14521;DHT22;7347;50.844;4.490;2024-01-27T08:53:53;7.60;99.90
14521;DHT22;7347;50.844;4.490;2024-01-27T08:56:20;7.50;99.90
14521;DHT22;7347;50.844;4.490;2024-01-27T08:58:47;7.50;99.90
14521;DHT22;7347;50.844;4.490;2024-01-27T09:01:15;7.50;99.90
14521;DHT22;7347;50.844;4.490;2024-01-27T09:03:42;7.60;99.90
14521;DHT22;7347;50.844;4.490;2024-01-27T09:06:10;7.70;99.90
14521;DHT22;7347;50.844;4.490;2024-01-27T09:08:39;7.50;99.90
14521;DHT22;7347;50.844;4.490;2024-01-27T09:11:05;7.30;99.90
14521;DHT22;7347;50.844;4.490;2024-01-27T09:13:32;7.20;99.90
14521;DHT22;7347;50.844;4.490;2024-01-27T09:15:59;7.10;99.90
14521;DHT22;7347;50.844;4.490;2024-01-27T09:18:28;6.90;99.90
14521;DHT22;7347;50.844;4.490;2024-01-27T09:20:55;6.90;99.90
14521;DHT22;7347;50.844;4.490;2024-01-27T09:23:21;6.60;99.90
14521;DHT22;7347;50.844;4.490;2024-01-27T09:25:48;6.50;99.90
14521;DHT22;7347;50.844;4.490;2024-01-27T09:28:15;6.40;99.90
14521;DHT22;7347;50.844;4.490;2024-01-27T09:30:42;6.30;99.90
14521;DHT22;7347;50.844;4.490;2024-01-27T09:33:09;6.40;99.90
14521;DHT22;7347;50.844;4.490;2024-01-27T09:35:37;6.50;99.90
14521;DHT22;7347;50.844;4.490;2024-01-27T09:38:04;6.60;99.90
14521;DHT22;7347;50.844;4.490;2024-01-27T09:40:33;6.60;99.90
14521;DHT22;7347;50.844;4.490;2024-01-27T09:43:00;6.70;99.90
14521;DHT22;7347;50.844;4.490;2024-01-27T09:45:27;6.70;99.90
14521;DHT22;7347;50.844;4.490;2024-01-27T09:47:56;6.70;99.90
14521;DHT22;7347;50.844;4.490;2024-01-27T09:50:24;6.60;99.90
14521;DHT22;7347;50.844;4.490;2024-01-27T09:52:52;6.50;99.90
14521;DHT22;7347;50.844;4.490;2024-01-27T09:55:19;6.50;99.90
14521;DHT22;7347;50.844;4.490;2024-01-27T09:57:46;6.50;99.90
14521;DHT22;7347;50.844;4.490;2024-01-27T10:00:15;6.50;99.90
14521;DHT22;7347;50.844;4.490;2024-01-27T10:02:43;6.50;99.90
14521;DHT22;7347;50.844;4.490;2024-01-27T10:05:13;6.60;99.90
14521;DHT22;7347;50.844;4.490;2024-01-27T10:07:40;6.60;99.90
14521;DHT22;7347;50.844;4.490;2024-01-27T10:10:09;6.70;99.90
14521;DHT22;7347;50.844;4.490;2024-01-27T10:12:40;6.70;99.90
14521;DHT22;7347;50.844;4.490;2024-01-27T10:15:18;6.70;99.90
14521;DHT22;7347;50.844;4.490;2024-01-27T10:17:45;6.70;99.90
14521;DHT22;7347;50.844;4.490;2024-01-27T10:20:12;6.90;99.90
14521;DHT22;7347;50.844;4.490;2024-01-27T10:22:41;7.00;99.90
14521;DHT22;7347;50.844;4.490;2024-01-27T10:25:12;7.00;99.90
14521;DHT22;7347;50.844;4.490;2024-01-27T10:27:39;7.10;99.90
14521;DHT22;7347;50.844;4.490;2024-01-27T10:30:15;7.10;99.90
14521;DHT22;7347;50.844;4.490;2024-01-27T10:32:42;7.20;99.90
14521;DHT22;7347;50.844;4.490;2024-01-27T10:35:09;7.30;99.90
14521;DHT22;7347;50.844;4.490;2024-01-27T10:37:36;7.40;99.90
14521;DHT22;7347;50.844;4.490;2024-01-27T10:40:05;7.60;99.90
14521;DHT22;7347;50.844;4.490;2024-01-27T10:42:35;7.70;99.90
14521;DHT22;7347;50.844;4.490;2024-01-27T10:45:03;7.80;99.90
14521;DHT22;7347;50.844;4.490;2024-01-27T10:47:31;7.80;99.90
14521;DHT22;7347;50.844;4.490;2024-01-27T10:49:59;7.80;99.90
14521;DHT22;7347;50.844;4.490;2024-01-27T10:52:28;7.70;99.90
14521;DHT22;7347;50.844;4.490;2024-01-27T10:54:58;7.60;99.90
14521;DHT22;7347;50.844;4.490;2024-01-27T10:57:26;7.50;99.90
14521;DHT22;7347;50.844;4.490;2024-01-27T10:59:56;7.50;99.90
14521;DHT22;7347;50.844;4.490;2024-01-27T11:02:23;7.50;99.90
14521;DHT22;7347;50.844;4.490;2024-01-27T11:04:51;7.60;99.90
14521;DHT22;7347;50.844;4.490;2024-01-27T11:07:20;7.70;99.90
14521;DHT22;7347;50.844;4.490;2024-01-27T11:09:49;7.70;99.90
14521;DHT22;7347;50.844;4.490;2024-01-27T11:12:18;7.70;99.90
14521;DHT22;7347;50.844;4.490;2024-01-27T11:14:46;7.70;99.90
14521;DHT22;7347;50.844;4.490;2024-01-27T11:17:16;7.70;99.90
14521;DHT22;7347;50.844;4.490;2024-01-27T11:19:44;7.80;99.90
14521;DHT22;7347;50.844;4.490;2024-01-27T11:22:24;7.90;99.90
14521;DHT22;7347;50.844;4.490;2024-01-27T11:24:52;7.90;99.90
14521;DHT22;7347;50.844;4.490;2024-01-27T11:27:26;8.00;99.90
14521;DHT22;7347;50.844;4.490;2024-01-27T11:29:54;8.10;99.90
14521;DHT22;7347;50.844;4.490;2024-01-27T11:32:23;8.20;99.90
14521;DHT22;7347;50.844;4.490;2024-01-27T11:34:50;8.30;99.90
14521;DHT22;7347;50.844;4.490;2024-01-27T11:37:17;8.30;99.90
14521;DHT22;7347;50.844;4.490;2024-01-27T11:39:50;8.30;99.90
14521;DHT22;7347;50.844;4.490;2024-01-27T11:42:17;8.20;99.90
14521;DHT22;7347;50.844;4.490;2024-01-27T11:44:44;8.40;99.90
14521;DHT22;7347;50.844;4.490;2024-01-27T11:47:16;8.40;99.90
14521;DHT22;7347;50.844;4.490;2024-01-27T11:49:50;8.40;99.90
14521;DHT22;7347;50.844;4.490;2024-01-27T11:52:18;8.20;99.90
14521;DHT22;7347;50.844;4.490;2024-01-27T11:54:45;8.30;99.90
14521;DHT22;7347;50.844;4.490;2024-01-27T11:57:12;8.30;99.90
14521;DHT22;7347;50.844;4.490;2024-01-27T11:59:39;8.30;99.90
14521;DHT22;7347;50.844;4.490;2024-01-27T12:02:06;8.30;99.90
14521;DHT22;7347;50.844;4.490;2024-01-27T12:04:33;8.30;99.90
14521;DHT22;7347;50.844;4.490;2024-01-27T12:07:02;8.30;99.90
14521;DHT22;7347;50.844;4.490;2024-01-27T12:09:30;8.30;99.90
14521;DHT22;7347;50.844;4.490;2024-01-27T12:11:56;8.30;99.90
14521;DHT22;7347;50.844;4.490;2024-01-27T12:14:23;8.40;99.90
14521;DHT22;7347;50.844;4.490;2024-01-27T12:16:50;8.40;99.90
14521;DHT22;7347;50.844;4.490;2024-01-27T12:19:19;8.40;99.90
14521;DHT22;7347;50.844;4.490;2024-01-27T12:21:49;8.50;99.90
14521;DHT22;7347;50.844;4.490;2024-01-27T12:24:17;8.60;99.90
14521;DHT22;7347;50.844;4.490;2024-01-27T12:26:45;8.70;99.90
14521;DHT22;7347;50.844;4.490;2024-01-27T12:29:14;8.80;99.90
14521;DHT22;7347;50.844;4.490;2024-01-27T12:31:40;8.90;99.90
14521;DHT22;7347;50.844;4.490;2024-01-27T12:34:07;9.00;99.90
14521;DHT22;7347;50.844;4.490;2024-01-27T12:36:40;9.10;99.90
14521;DHT22;7347;50.844;4.490;2024-01-27T12:39:08;9.10;99.90
14521;DHT22;7347;50.844;4.490;2024-01-27T12:41:37;9.00;99.90
14521;DHT22;7347;50.844;4.490;2024-01-27T12:44:04;9.00;99.90
14521;DHT22;7347;50.844;4.490;2024-01-27T12:46:31;9.10;99.90
14521;DHT22;7347;50.844;4.490;2024-01-27T12:48:58;9.20;99.90
14521;DHT22;7347;50.844;4.490;2024-01-27T12:51:25;9.20;99.90
14521;DHT22;7347;50.844;4.490;2024-01-27T12:53:52;9.30;99.90
14521;DHT22;7347;50.844;4.490;2024-01-27T12:56:19;9.30;99.90
14521;DHT22;7347;50.844;4.490;2024-01-27T12:58:47;9.50;99.90
14521;DHT22;7347;50.844;4.490;2024-01-27T13:01:13;9.50;99.90
14521;DHT22;7347;50.844;4.490;2024-01-27T13:03:41;9.50;99.90
14521;DHT22;7347;50.844;4.490;2024-01-27T13:06:08;9.70;99.90
14521;DHT22;7347;50.844;4.490;2024-01-27T13:08:36;9.90;99.90
14521;DHT22;7347;50.844;4.490;2024-01-27T13:11:03;9.90;99.90
14521;DHT22;7347;50.844;4.490;2024-01-27T13:13:30;9.90;99.90
14521;DHT22;7347;50.844;4.490;2024-01-27T13:15:58;10.00;99.90
14521;DHT22;7347;50.844;4.490;2024-01-27T13:18:26;10.20;99.90
14521;DHT22;7347;50.844;4.490;2024-01-27T13:20:52;10.30;99.90
14521;DHT22;7347;50.844;4.490;2024-01-27T13:23:19;10.30;99.90
14521;DHT22;7347;50.844;4.490;2024-01-27T13:25:46;10.30;99.90
14521;DHT22;7347;50.844;4.490;2024-01-27T13:28:13;10.30;99.90
14521;DHT22;7347;50.844;4.490;2024-01-27T13:30:40;10.30;99.90
14521;DHT22;7347;50.844;4.490;2024-01-27T13:33:09;10.40;99.90
14521;DHT22;7347;50.844;4.490;2024-01-27T13:35:37;10.10;99.90
14521;DHT22;7347;50.844;4.490;2024-01-27T13:38:05;10.20;99.90
14521;DHT22;7347;50.844;4.490;2024-01-27T13:40:32;10.30;99.90
14521;DHT22;7347;50.844;4.490;2024-01-27T13:42:59;10.50;99.90
14521;DHT22;7347;50.844;4.490;2024-01-27T13:45:26;10.60;99.90
14521;DHT22;7347;50.844;4.490;2024-01-27T13:47:53;10.60;99.90
14521;DHT22;7347;50.844;4.490;2024-01-27T13:50:21;10.50;99.90
14521;DHT22;7347;50.844;4.490;2024-01-27T13:52:48;10.40;99.90
14521;DHT22;7347;50.844;4.490;2024-01-27T13:55:15;10.30;99.90
14521;DHT22;7347;50.844;4.490;2024-01-27T13:57:43;10.60;99.90
14521;DHT22;7347;50.844;4.490;2024-01-27T14:00:12;10.40;99.90
14521;DHT22;7347;50.844;4.490;2024-01-27T14:02:39;10.30;99.90
14521;DHT22;7347;50.844;4.490;2024-01-27T14:05:06;10.50;99.90
14521;DHT22;7347;50.844;4.490;2024-01-27T14:07:34;10.50;99.90
14521;DHT22;7347;50.844;4.490;2024-01-27T14:10:01;10.50;99.90
14521;DHT22;7347;50.844;4.490;2024-01-27T14:12:28;10.60;99.90
14521;DHT22;7347;50.844;4.490;2024-01-27T14:15:03;10.50;99.90
14521;DHT22;7347;50.844;4.490;2024-01-27T14:17:32;10.50;99.90
14521;DHT22;7347;50.844;4.490;2024-01-27T14:19:58;10.50;99.90
14521;DHT22;7347;50.844;4.490;2024-01-27T14:22:25;10.50;99.90
14521;DHT22;7347;50.844;4.490;2024-01-27T14:24:54;10.50;99.90
14521;DHT22;7347;50.844;4.490;2024-01-27T14:27:20;10.40;99.90
14521;DHT22;7347;50.844;4.490;2024-01-27T14:29:51;10.40;99.90
14521;DHT22;7347;50.844;4.490;2024-01-27T14:32:18;10.80;99.90
14521;DHT22;7347;50.844;4.490;2024-01-27T14:34:45;10.90;99.90
14521;DHT22;7347;50.844;4.490;2024-01-27T14:37:12;10.80;99.90
14521;DHT22;7347;50.844;4.490;2024-01-27T14:39:42;10.90;99.90
14521;DHT22;7347;50.844;4.490;2024-01-27T14:42:12;10.80;99.90
14521;DHT22;7347;50.844;4.490;2024-01-27T14:44:39;10.70;99.90
14521;DHT22;7347;50.844;4.490;2024-01-27T14:47:08;10.60;99.90
14521;DHT22;7347;50.844;4.490;2024-01-27T14:49:35;10.20;99.90
14521;DHT22;7347;50.844;4.490;2024-01-27T14:52:04;10.10;99.90
14521;DHT22;7347;50.844;4.490;2024-01-27T14:54:31;10.10;99.90
14521;DHT22;7347;50.844;4.490;2024-01-27T14:56:58;10.10;99.90
14521;DHT22;7347;50.844;4.490;2024-01-27T14:59:26;10.10;99.90
14521;DHT22;7347;50.844;4.490;2024-01-27T15:01:54;10.00;99.90
14521;DHT22;7347;50.844;4.490;2024-01-27T15:04:22;9.80;99.90
14521;DHT22;7347;50.844;4.490;2024-01-27T15:06:51;9.80;99.90
14521;DHT22;7347;50.844;4.490;2024-01-27T15:09:18;9.80;99.90
14521;DHT22;7347;50.844;4.490;2024-01-27T15:11:45;9.80;99.90
14521;DHT22;7347;50.844;4.490;2024-01-27T15:14:12;9.80;99.90
14521;DHT22;7347;50.844;4.490;2024-01-27T15:16:40;9.80;99.90
14521;DHT22;7347;50.844;4.490;2024-01-27T15:19:07;9.70;99.90
14521;DHT22;7347;50.844;4.490;2024-01-27T15:21:34;9.60;99.90
14521;DHT22;7347;50.844;4.490;2024-01-27T15:24:01;9.50;99.90
14521;DHT22;7347;50.844;4.490;2024-01-27T15:26:28;9.30;99.90
14521;DHT22;7347;50.844;4.490;2024-01-27T15:28:55;9.20;99.90
14521;DHT22;7347;50.844;4.490;2024-01-27T15:31:21;9.20;99.90
14521;DHT22;7347;50.844;4.490;2024-01-27T15:33:49;9.10;99.90
14521;DHT22;7347;50.844;4.490;2024-01-27T15:36:16;9.10;99.90
14521;DHT22;7347;50.844;4.490;2024-01-27T15:38:43;9.00;99.90
14521;DHT22;7347;50.844;4.490;2024-01-27T15:41:10;9.00;99.90
14521;DHT22;7347;50.844;4.490;2024-01-27T15:43:37;8.90;99.90
14521;DHT22;7347;50.844;4.490;2024-01-27T15:46:05;8.90;99.90
14521;DHT22;7347;50.844;4.490;2024-01-27T15:48:31;8.80;99.90
14521;DHT22;7347;50.844;4.490;2024-01-27T15:51:00;8.80;99.90
14521;DHT22;7347;50.844;4.490;2024-01-27T15:53:27;8.80;99.90
14521;DHT22;7347;50.844;4.490;2024-01-27T15:55:54;8.70;99.90
14521;DHT22;7347;50.844;4.490;2024-01-27T15:58:21;8.60;99.90
14521;DHT22;7347;50.844;4.490;2024-01-27T16:00:49;8.60;99.90